createdAt,value
2022-08-27T00:02:16.403Z,21.80
2022-08-27T00:04:43.872Z,21.80
2022-08-27T00:07:10.726Z,21.80
2022-08-27T00:09:37.531Z,21.80
2022-08-27T00:12:04.617Z,21.80
2022-08-27T00:14:31.680Z,21.80
2022-08-27T00:16:58.560Z,21.70
2022-08-27T00:19:25.425Z,21.70
2022-08-27T00:21:52.280Z,21.70
2022-08-27T00:24:19.082Z,21.70
2022-08-27T00:26:45.945Z,21.60
2022-08-27T00:29:13.235Z,21.60
2022-08-27T00:31:40.157Z,21.60
2022-08-27T00:34:07.563Z,21.50
2022-08-27T00:36:35.018Z,21.50
2022-08-27T00:39:02.741Z,21.50
2022-08-27T00:41:29.652Z,21.60
2022-08-27T00:43:58.080Z,21.60
2022-08-27T00:46:28.942Z,21.60
2022-08-27T00:48:56.461Z,21.50
2022-08-27T00:51:24.264Z,21.50
2022-08-27T00:53:51.123Z,21.50
2022-08-27T00:56:19.288Z,21.50
2022-08-27T00:58:46.906Z,21.40
2022-08-27T01:01:14.761Z,21.50
2022-08-27T01:03:41.710Z,21.40
2022-08-27T01:06:10.160Z,21.40
2022-08-27T01:08:38.012Z,21.40
2022-08-27T01:11:05.832Z,21.40
2022-08-27T01:13:44.145Z,21.40
2022-08-27T01:16:21.577Z,21.40
2022-08-27T01:18:49.738Z,21.40
2022-08-27T01:21:43.102Z,21.40
2022-08-27T01:24:19.541Z,21.40
2022-08-27T01:26:46.453Z,21.40
2022-08-27T01:29:13.301Z,21.40
2022-08-27T01:31:40.149Z,21.40
2022-08-27T01:34:07.049Z,21.40
2022-08-27T01:36:33.870Z,21.40
2022-08-27T01:39:00.876Z,21.40
2022-08-27T01:41:27.694Z,21.40
2022-08-27T01:43:54.496Z,21.40
2022-08-27T01:46:22.254Z,21.40
2022-08-27T01:48:49.158Z,21.30
2022-08-27T01:51:16.026Z,21.30
2022-08-27T01:53:42.857Z,21.20
2022-08-27T01:56:09.707Z,21.20
2022-08-27T01:58:37.080Z,21.20
2022-08-27T02:01:05.594Z,21.20
2022-08-27T02:03:32.466Z,21.20
2022-08-27T02:05:59.999Z,21.20
2022-08-27T02:08:26.929Z,21.10
2022-08-27T02:10:53.727Z,21.10
2022-08-27T02:13:20.509Z,21.10
2022-08-27T02:15:47.491Z,21.00
2022-08-27T02:18:15.034Z,21.00
2022-08-27T02:20:45.319Z,21.00
2022-08-27T02:23:12.431Z,21.00
2022-08-27T02:25:39.394Z,21.00
2022-08-27T02:28:06.355Z,21.00
2022-08-27T02:30:33.283Z,21.00
2022-08-27T02:33:03.545Z,21.00
2022-08-27T02:35:30.854Z,21.00
2022-08-27T02:37:58.294Z,21.00
2022-08-27T02:40:25.501Z,21.00
2022-08-27T02:42:52.397Z,21.00
2022-08-27T02:45:19.751Z,21.00
2022-08-27T02:47:46.743Z,21.00
2022-08-27T02:50:14.260Z,21.00
2022-08-27T02:52:41.218Z,20.90
2022-08-27T02:55:08.239Z,20.90
2022-08-27T02:57:36.595Z,20.90
2022-08-27T03:00:07.833Z,20.90
2022-08-27T03:02:34.781Z,20.90
2022-08-27T03:05:01.693Z,20.90
2022-08-27T03:07:28.499Z,20.90
2022-08-27T03:09:55.377Z,20.80
2022-08-27T03:12:22.770Z,20.80
2022-08-27T03:14:51.645Z,20.80
2022-08-27T03:17:37.132Z,20.80
2022-08-27T03:20:04.944Z,20.70
2022-08-27T03:22:31.749Z,20.70
2022-08-27T03:24:58.579Z,20.60
2022-08-27T03:27:25.404Z,20.60
2022-08-27T03:29:52.203Z,20.60
2022-08-27T03:32:18.990Z,20.60
2022-08-27T03:34:45.795Z,20.60
2022-08-27T03:37:12.568Z,20.60
2022-08-27T03:39:39.557Z,20.60
2022-08-27T03:42:06.362Z,20.60
2022-08-27T03:44:33.153Z,20.60
2022-08-27T03:47:00.176Z,20.60
2022-08-27T03:49:26.994Z,20.60
2022-08-27T03:51:54.401Z,20.60
2022-08-27T03:54:21.370Z,20.60
2022-08-27T03:56:48.382Z,20.50
2022-08-27T03:59:15.938Z,20.50
2022-08-27T04:01:43.209Z,20.50
2022-08-27T04:04:10.149Z,20.50
2022-08-27T04:06:36.960Z,20.40
2022-08-27T04:09:03.882Z,20.40
2022-08-27T04:11:30.945Z,20.40
2022-08-27T04:13:57.764Z,20.40
2022-08-27T04:16:25.900Z,20.40
2022-08-27T04:18:53.291Z,20.40
2022-08-27T04:21:20.710Z,20.40
2022-08-27T04:23:47.539Z,20.50
2022-08-27T04:26:14.923Z,20.50
2022-08-27T04:28:41.732Z,20.60
2022-08-27T04:31:16.748Z,20.70
2022-08-27T04:33:50.948Z,20.70
2022-08-27T04:36:18.358Z,20.90
2022-08-27T04:38:45.264Z,21.00
2022-08-27T04:41:21.733Z,21.10
2022-08-27T04:43:52.585Z,21.20
2022-08-27T04:46:22.813Z,21.20
2022-08-27T04:48:49.692Z,21.30
2022-08-27T04:51:16.611Z,21.40
2022-08-27T04:53:45.041Z,21.60
2022-08-27T04:56:15.286Z,21.70
2022-08-27T04:58:42.329Z,21.90
2022-08-27T05:01:09.170Z,22.20
2022-08-27T05:03:36.010Z,22.80
2022-08-27T05:06:03.948Z,23.30
2022-08-27T05:08:30.844Z,23.80
2022-08-27T05:10:57.654Z,24.30
2022-08-27T05:13:24.575Z,24.80
2022-08-27T05:15:57.259Z,25.20
2022-08-27T05:18:24.241Z,25.70
2022-08-27T05:20:51.130Z,26.30
2022-08-27T05:23:18.162Z,26.80
2022-08-27T05:25:46.031Z,27.30
2022-08-27T05:28:13.555Z,27.70
2022-08-27T05:30:49.279Z,28.10
2022-08-27T05:33:22.918Z,28.20
2022-08-27T05:35:53.541Z,28.50
2022-08-27T05:38:20.361Z,28.50
2022-08-27T05:40:48.222Z,28.80
2022-08-27T05:43:15.947Z,29.10
2022-08-27T05:45:43.155Z,29.40
2022-08-27T05:48:12.193Z,29.60
2022-08-27T05:50:39.505Z,29.70
2022-08-27T05:53:06.355Z,29.80
2022-08-27T05:55:40.211Z,30.20
2022-08-27T05:58:07.197Z,30.60
2022-08-27T06:00:52.866Z,31.00
2022-08-27T06:03:19.700Z,31.30
2022-08-27T06:05:46.557Z,31.70
2022-08-27T06:08:13.882Z,32.00
2022-08-27T06:10:42.151Z,32.60
2022-08-27T06:13:09.009Z,32.90
2022-08-27T06:15:36.273Z,33.10
2022-08-27T06:18:05.367Z,33.40
2022-08-27T06:20:32.167Z,33.40
2022-08-27T06:22:59.038Z,33.40
2022-08-27T06:25:25.864Z,33.70
2022-08-27T06:27:52.760Z,34.00
2022-08-27T06:30:19.598Z,34.40
2022-08-27T06:32:46.582Z,35.00
2022-08-27T06:35:13.445Z,35.00
2022-08-27T06:37:40.270Z,35.10
2022-08-27T06:40:07.538Z,35.20
2022-08-27T06:42:34.755Z,35.50
2022-08-27T06:45:03.091Z,35.60
2022-08-27T06:47:31.595Z,36.10
2022-08-27T06:49:58.645Z,36.30
2022-08-27T06:52:25.466Z,36.70
2022-08-27T06:54:52.272Z,37.00
2022-08-27T06:57:19.245Z,36.90
2022-08-27T06:59:46.059Z,36.90
2022-08-27T07:02:13.026Z,36.90
2022-08-27T07:04:39.989Z,37.10
2022-08-27T07:07:08.180Z,37.60
2022-08-27T07:09:35.047Z,37.50
2022-08-27T07:12:01.899Z,37.90
2022-08-27T07:14:29.626Z,38.20
2022-08-27T07:16:59.517Z,38.40
2022-08-27T07:19:28.351Z,38.90
2022-08-27T07:21:55.979Z,38.70
2022-08-27T07:24:22.774Z,38.40
2022-08-27T07:26:49.577Z,38.20
2022-08-27T07:29:16.403Z,38.20
2022-08-27T07:31:43.821Z,38.20
2022-08-27T07:34:10.693Z,38.60
2022-08-27T07:36:38.688Z,38.80
2022-08-27T07:39:05.558Z,38.80
2022-08-27T07:41:32.401Z,38.80
2022-08-27T07:44:18.225Z,39.10
2022-08-27T07:46:47.863Z,38.70
2022-08-27T07:49:15.490Z,38.90
2022-08-27T07:51:42.294Z,39.10
2022-08-27T07:54:09.134Z,39.30
2022-08-27T07:56:35.915Z,39.50
2022-08-27T07:59:02.738Z,39.30
2022-08-27T08:01:29.687Z,39.50
2022-08-27T08:03:56.671Z,39.80
2022-08-27T08:06:23.499Z,40.00
2022-08-27T08:08:50.345Z,40.10
2022-08-27T08:11:17.614Z,40.30
2022-08-27T08:13:44.721Z,40.70
2022-08-27T08:16:11.564Z,41.00
2022-08-27T08:18:38.673Z,41.50
2022-08-27T08:21:06.685Z,41.60
2022-08-27T08:23:33.801Z,41.40
2022-08-27T08:26:01.097Z,41.40
2022-08-27T08:28:29.166Z,41.40
2022-08-27T08:30:56.338Z,41.40
2022-08-27T08:33:23.184Z,41.40
2022-08-27T08:35:50.126Z,41.10
2022-08-27T08:38:17.385Z,40.80
2022-08-27T08:40:49.786Z,41.10
2022-08-27T08:43:21.795Z,41.30
2022-08-27T08:45:48.652Z,41.80
2022-08-27T08:48:17.030Z,42.20
2022-08-27T08:50:53.292Z,42.60
2022-08-27T08:53:20.115Z,43.00
2022-08-27T08:55:56.777Z,43.50
2022-08-27T08:58:23.554Z,43.40
2022-08-27T09:00:53.879Z,43.50
2022-08-27T09:03:20.775Z,43.40
2022-08-27T09:05:49.111Z,43.20
2022-08-27T09:08:35.214Z,43.00
2022-08-27T09:11:11.330Z,42.90
2022-08-27T09:13:47.890Z,42.70
2022-08-27T09:16:14.759Z,42.50
2022-08-27T09:18:41.623Z,42.60
2022-08-27T09:21:09.990Z,42.90
2022-08-27T09:23:39.952Z,43.10
2022-08-27T09:26:16.669Z,43.30
2022-08-27T09:29:01.966Z,43.50
2022-08-27T09:31:29.868Z,43.50
2022-08-27T09:33:57.283Z,43.20
2022-08-27T09:36:24.375Z,42.90
2022-08-27T09:38:57.928Z,42.50
2022-08-27T09:41:29.903Z,42.60
2022-08-27T09:44:03.761Z,43.10
2022-08-27T09:46:31.302Z,43.40
2022-08-27T09:48:58.147Z,43.30
2022-08-27T09:51:27.991Z,43.10
2022-08-27T09:53:54.849Z,43.60
2022-08-27T09:56:23.446Z,44.10
2022-08-27T09:58:51.543Z,44.40
2022-08-27T10:01:25.750Z,44.60
2022-08-27T10:04:07.975Z,44.10
2022-08-27T10:06:34.929Z,43.90
2022-08-27T10:09:13.946Z,44.00
2022-08-27T10:11:58.955Z,43.70
2022-08-27T10:14:29.630Z,43.20
2022-08-27T10:17:15.230Z,42.60
2022-08-27T10:19:42.037Z,42.00
2022-08-27T10:22:14.749Z,41.30
2022-08-27T10:24:55.504Z,40.80
2022-08-27T10:27:37.431Z,40.50
2022-08-27T10:30:06.222Z,40.20
2022-08-27T10:32:44.915Z,39.80
2022-08-27T10:35:13.360Z,39.30
2022-08-27T10:38:02.341Z,38.90
2022-08-27T10:40:33.862Z,38.50
2022-08-27T10:43:11.183Z,38.10
2022-08-27T10:45:42.840Z,37.70
2022-08-27T10:48:12.956Z,37.40
2022-08-27T10:50:42.972Z,36.90
2022-08-27T10:53:27.306Z,36.60
2022-08-27T10:55:58.463Z,36.40
2022-08-27T10:58:29.046Z,35.90
2022-08-27T11:01:16.153Z,35.40
2022-08-27T11:03:54.733Z,35.10
2022-08-27T11:06:32.294Z,35.10
2022-08-27T11:09:07.840Z,35.30
2022-08-27T11:14:39.458Z,35.00
2022-08-27T11:17:07.978Z,35.00
2022-08-27T11:19:42.342Z,35.30
2022-08-27T11:22:26.184Z,35.40
2022-08-27T11:24:55.563Z,35.30
2022-08-27T11:27:23.347Z,35.10
2022-08-27T11:29:52.562Z,35.00
2022-08-27T11:32:30.293Z,35.10
2022-08-27T11:34:58.653Z,35.20
2022-08-27T11:37:31.350Z,35.20
2022-08-27T11:40:18.917Z,35.20
2022-08-27T11:42:48.312Z,35.20
2022-08-27T11:45:18.225Z,35.10
2022-08-27T11:47:55.208Z,35.20
2022-08-27T11:50:22.161Z,35.20
2022-08-27T11:52:58.381Z,35.10
2022-08-27T11:55:25.212Z,35.10
2022-08-27T11:58:04.575Z,35.00
2022-08-27T12:00:33.978Z,34.80
2022-08-27T12:03:02.412Z,34.70
2022-08-27T12:06:04.731Z,34.70
2022-08-27T12:08:32.047Z,34.60
2022-08-27T12:11:03.849Z,34.50
2022-08-27T12:13:49.203Z,34.70
2022-08-27T12:16:18.965Z,34.90
2022-08-27T12:18:49.958Z,35.10
2022-08-27T12:21:28.970Z,35.20
2022-08-27T12:24:14.129Z,35.40
2022-08-27T12:26:42.844Z,35.40
2022-08-27T12:29:20.646Z,35.40
2022-08-27T12:31:55.370Z,35.40
2022-08-27T12:34:25.718Z,35.30
2022-08-27T12:36:53.428Z,35.20
2022-08-27T12:39:24.443Z,35.20
2022-08-27T12:41:51.359Z,35.10
2022-08-27T12:44:27.266Z,34.90
2022-08-27T12:47:01.623Z,34.70
2022-08-27T12:49:38.806Z,34.50
2022-08-27T12:52:13.894Z,34.40
2022-08-27T12:54:44.231Z,34.30
2022-08-27T12:57:15.744Z,34.20
2022-08-27T12:59:42.519Z,34.00
2022-08-27T13:02:27.929Z,33.80
2022-08-27T13:04:54.722Z,33.70
2022-08-27T13:07:28.765Z,33.60
2022-08-27T13:10:13.203Z,33.50
2022-08-27T13:12:40.307Z,33.40
2022-08-27T13:15:07.930Z,33.30
2022-08-27T13:17:37.374Z,33.20
2022-08-27T13:20:04.303Z,33.10
2022-08-27T13:22:32.007Z,33.10
2022-08-27T13:24:59.974Z,33.10
2022-08-27T13:27:28.014Z,33.20
2022-08-27T13:29:55.024Z,33.10
2022-08-27T13:32:29.816Z,33.10
2022-08-27T13:34:58.914Z,33.00
2022-08-27T13:37:26.971Z,32.40
2022-08-27T13:39:54.674Z,31.50
2022-08-27T13:42:21.682Z,30.90
2022-08-27T13:44:48.605Z,30.70
2022-08-27T13:47:17.110Z,30.70
2022-08-27T13:49:43.930Z,30.70
2022-08-27T13:52:19.988Z,30.70
2022-08-27T13:55:07.821Z,30.70
2022-08-27T13:57:42.159Z,30.80
2022-08-27T14:00:16.714Z,30.90
2022-08-27T14:02:56.287Z,31.00
2022-08-27T14:05:23.372Z,31.10
2022-08-27T14:07:54.448Z,31.10
2022-08-27T14:10:25.412Z,31.10
2022-08-27T14:13:02.870Z,31.20
2022-08-27T14:15:34.051Z,31.20
2022-08-27T14:18:01.132Z,31.20
2022-08-27T14:20:28.056Z,31.10
2022-08-27T14:22:55.757Z,31.10
2022-08-27T14:25:22.718Z,30.90
2022-08-27T14:27:54.379Z,30.70
2022-08-27T14:30:29.145Z,30.50
2022-08-27T14:33:00.505Z,30.20
2022-08-27T14:35:28.308Z,30.00
2022-08-27T14:37:55.622Z,29.80
2022-08-27T14:40:22.516Z,29.70
2022-08-27T14:42:49.414Z,29.70
2022-08-27T14:45:17.893Z,29.80
2022-08-27T14:47:45.323Z,29.80
2022-08-27T14:50:12.537Z,29.80
2022-08-27T14:52:39.991Z,29.70
2022-08-27T14:55:10.519Z,29.60
2022-08-27T14:57:37.914Z,29.60
2022-08-27T15:00:05.362Z,29.50
2022-08-27T15:02:32.164Z,29.40
2022-08-27T15:04:59.025Z,29.50
2022-08-27T15:07:25.867Z,29.50
2022-08-27T15:09:52.774Z,29.40
2022-08-27T15:12:25.871Z,29.40
2022-08-27T15:14:53.118Z,29.30
2022-08-27T15:17:33.461Z,29.20
2022-08-27T15:20:03.087Z,29.20
2022-08-27T15:22:32.174Z,29.20
2022-08-27T15:24:58.960Z,29.20
2022-08-27T15:27:27.535Z,29.00
2022-08-27T15:30:05.943Z,28.90
2022-08-27T15:32:33.533Z,28.80
2022-08-27T15:35:00.871Z,28.80
2022-08-27T15:37:27.732Z,28.70
2022-08-27T15:39:54.566Z,28.70
2022-08-27T15:42:21.419Z,28.50
2022-08-27T15:44:49.505Z,28.30
2022-08-27T15:47:19.451Z,28.20
2022-08-27T15:49:46.603Z,28.20
2022-08-27T15:52:14.113Z,28.20
2022-08-27T15:54:43.328Z,28.10
2022-08-27T15:57:10.444Z,28.20
2022-08-27T15:59:37.306Z,28.10
2022-08-27T16:02:04.237Z,28.20
2022-08-27T16:04:31.138Z,28.10
2022-08-27T16:06:57.893Z,28.10
2022-08-27T16:09:24.729Z,28.10
2022-08-27T16:11:51.645Z,28.00
2022-08-27T16:14:18.389Z,28.00
2022-08-27T16:16:45.488Z,27.90
2022-08-27T16:19:16.482Z,27.80
2022-08-27T16:21:43.611Z,27.70
2022-08-27T16:24:10.944Z,27.70
2022-08-27T16:26:37.913Z,27.60
2022-08-27T16:29:04.845Z,27.60
2022-08-27T16:31:32.794Z,27.50
2022-08-27T16:33:59.831Z,27.50
2022-08-27T16:36:26.724Z,27.40
2022-08-27T16:38:54.312Z,27.40
2022-08-27T16:41:21.419Z,27.30
2022-08-27T16:43:48.697Z,27.30
2022-08-27T16:46:15.567Z,27.30
2022-08-27T16:49:01.535Z,27.20
2022-08-27T16:51:34.631Z,27.20
2022-08-27T16:54:05.271Z,27.10
2022-08-27T16:56:37.133Z,26.90
2022-08-27T16:59:04.781Z,26.80
2022-08-27T17:01:31.691Z,26.70
2022-08-27T17:04:25.162Z,26.60
2022-08-27T17:06:46.400Z,26.40
2022-08-27T17:09:13.367Z,26.20
2022-08-27T17:11:41.812Z,26.20
2022-08-27T17:14:11.266Z,26.20
2022-08-27T17:16:38.084Z,26.20
2022-08-27T17:19:05.095Z,26.20
2022-08-27T17:21:32.050Z,26.20
2022-08-27T17:23:59.484Z,26.20
2022-08-27T17:26:26.328Z,26.10
2022-08-27T17:28:53.175Z,26.10
2022-08-27T17:31:27.893Z,26.00
2022-08-27T17:33:56.093Z,26.00
2022-08-27T17:36:24.871Z,26.00
2022-08-27T17:38:53.987Z,26.00
2022-08-27T17:41:25.696Z,25.90
2022-08-27T17:43:52.563Z,25.80
2022-08-27T17:46:19.503Z,25.60
2022-08-27T17:48:46.402Z,25.50
2022-08-27T17:51:13.301Z,25.40
2022-08-27T17:53:43.486Z,25.30
2022-08-27T17:56:10.249Z,25.30
2022-08-27T17:58:37.008Z,25.30
2022-08-27T18:01:03.892Z,25.40
2022-08-27T18:03:31.758Z,25.40
2022-08-27T18:06:14.537Z,25.40
2022-08-27T18:08:41.659Z,25.40
2022-08-27T18:11:08.506Z,25.40
2022-08-27T18:13:37.265Z,25.50
2022-08-27T18:16:04.535Z,25.60
2022-08-27T18:18:31.500Z,25.60
2022-08-27T18:20:58.308Z,25.70
2022-08-27T18:23:25.077Z,25.70
2022-08-27T18:25:52.138Z,25.70
2022-08-27T18:28:19.015Z,25.70
2022-08-27T18:30:46.170Z,25.80
2022-08-27T18:33:13.103Z,25.80
2022-08-27T18:35:40.222Z,25.70
2022-08-27T18:38:07.246Z,25.60
2022-08-27T18:40:41.296Z,25.50
2022-08-27T18:43:08.135Z,25.40
2022-08-27T18:45:37.689Z,25.30
2022-08-27T18:48:07.287Z,25.20
2022-08-27T18:50:34.135Z,25.10
2022-08-27T18:53:00.898Z,25.00
2022-08-27T18:55:28.232Z,24.90
2022-08-27T18:57:55.122Z,24.90
2022-08-27T19:00:22.178Z,24.90
2022-08-27T19:02:52.367Z,25.00
2022-08-27T19:05:26.634Z,25.00
2022-08-27T19:07:54.405Z,24.90
2022-08-27T19:10:21.205Z,24.90
2022-08-27T19:12:48.033Z,24.80
2022-08-27T19:15:14.882Z,24.90
2022-08-27T19:17:41.914Z,24.90
2022-08-27T19:20:08.854Z,25.00
2022-08-27T19:22:35.705Z,25.00
2022-08-27T19:25:02.509Z,25.00
2022-08-27T19:27:29.357Z,25.00
2022-08-27T19:29:56.146Z,24.90
2022-08-27T19:32:22.948Z,24.90
2022-08-27T19:34:49.785Z,24.90
2022-08-27T19:37:20.971Z,24.80
2022-08-27T19:39:47.785Z,24.80
2022-08-27T19:42:14.561Z,24.80
2022-08-27T19:44:41.357Z,24.80
2022-08-27T19:47:08.339Z,24.70
2022-08-27T19:49:35.201Z,24.80
2022-08-27T19:52:06.221Z,24.90
2022-08-27T19:54:43.107Z,24.80
2022-08-27T19:57:18.757Z,24.90
2022-08-27T19:59:45.622Z,24.90
2022-08-27T20:02:12.582Z,24.80
2022-08-27T20:04:55.980Z,24.80
2022-08-27T20:07:26.682Z,24.80
2022-08-27T20:09:53.486Z,24.70
2022-08-27T20:12:21.875Z,24.60
2022-08-27T20:14:50.051Z,24.50
2022-08-27T20:17:18.502Z,24.40
2022-08-27T20:19:45.396Z,24.30
2022-08-27T20:22:13.415Z,24.20
2022-08-27T20:24:40.498Z,24.10
2022-08-27T20:27:07.317Z,24.10
2022-08-27T20:29:34.132Z,24.10
2022-08-27T20:32:01.252Z,24.20
2022-08-27T20:34:29.591Z,24.30
2022-08-27T20:36:56.414Z,24.30
2022-08-27T20:39:23.249Z,24.30
2022-08-27T20:41:51.690Z,24.40
2022-08-27T20:44:18.494Z,24.40
2022-08-27T20:46:51.130Z,24.40
2022-08-27T20:49:19.024Z,24.50
2022-08-27T20:51:51.282Z,24.50
2022-08-27T20:54:30.259Z,24.50
2022-08-27T20:56:58.361Z,24.50
2022-08-27T20:59:43.645Z,24.40
2022-08-27T21:02:11.074Z,24.30
2022-08-27T21:04:41.866Z,24.20
2022-08-27T21:07:08.683Z,24.00
2022-08-27T21:09:35.587Z,23.90
2022-08-27T21:12:22.767Z,23.90
2022-08-27T21:14:50.179Z,23.90
2022-08-27T21:17:21.654Z,23.90
2022-08-27T21:19:48.462Z,23.90
2022-08-27T21:22:15.233Z,23.90
2022-08-27T21:24:42.041Z,23.90
2022-08-27T21:27:08.888Z,23.90
2022-08-27T21:29:36.848Z,23.90
2022-08-27T21:32:03.815Z,23.90
2022-08-27T21:34:31.197Z,23.90
2022-08-27T21:36:58.378Z,23.90
2022-08-27T21:39:25.176Z,23.90
2022-08-27T21:41:51.955Z,23.80
2022-08-27T21:44:18.699Z,23.80
2022-08-27T21:46:45.514Z,23.70
2022-08-27T21:49:12.473Z,23.70
2022-08-27T21:51:39.302Z,23.70
2022-08-27T21:54:06.047Z,23.60
2022-08-27T21:56:33.286Z,23.60
2022-08-27T21:59:00.057Z,23.60
2022-08-27T22:01:26.937Z,23.60
2022-08-27T22:03:53.986Z,23.60
2022-08-27T22:06:20.916Z,23.70
2022-08-27T22:08:47.747Z,23.70
2022-08-27T22:11:14.601Z,23.70
2022-08-27T22:13:41.398Z,23.60
2022-08-27T22:16:08.251Z,23.60
2022-08-27T22:18:35.066Z,23.60
2022-08-27T22:21:02.555Z,23.60
2022-08-27T22:23:29.299Z,23.60
2022-08-27T22:25:56.050Z,23.70
2022-08-27T22:28:23.217Z,23.70
2022-08-27T22:30:49.974Z,23.70
2022-08-27T22:33:17.507Z,23.70
2022-08-27T22:35:44.425Z,23.70
2022-08-27T22:38:11.316Z,23.70
2022-08-27T22:40:38.396Z,23.50
2022-08-27T22:43:05.339Z,23.50
2022-08-27T22:45:32.141Z,23.50
2022-08-27T22:47:58.926Z,23.30
2022-08-27T22:50:25.736Z,23.30
2022-08-27T22:52:52.550Z,23.30
2022-08-27T22:55:19.909Z,23.20
2022-08-27T22:57:47.376Z,23.20
2022-08-27T23:00:15.804Z,23.20
2022-08-27T23:02:42.613Z,23.20
2022-08-27T23:05:09.712Z,23.20
2022-08-27T23:07:36.713Z,23.10
2022-08-27T23:10:04.538Z,23.00
2022-08-27T23:12:32.040Z,22.90
2022-08-27T23:14:58.803Z,22.90
2022-08-27T23:17:25.988Z,22.90
2022-08-27T23:19:55.936Z,22.90
2022-08-27T23:22:22.949Z,22.90
2022-08-27T23:25:07.972Z,22.90
2022-08-27T23:27:34.909Z,22.90
2022-08-27T23:30:02.117Z,22.90
2022-08-27T23:32:28.904Z,22.80
2022-08-27T23:34:55.825Z,22.60
2022-08-27T23:37:22.653Z,22.50
2022-08-27T23:39:49.441Z,22.50
2022-08-27T23:42:18.613Z,22.50
2022-08-27T23:44:45.991Z,22.50
2022-08-27T23:47:12.825Z,22.50
2022-08-27T23:49:39.677Z,22.50
2022-08-27T23:52:06.517Z,22.30
2022-08-27T23:54:33.289Z,22.10
2022-08-27T23:57:00.096Z,22.00
2022-08-27T23:59:30.388Z,21.90
